sensor_id;sensor_type;location;lat;lon;timestamp;temperature;humidity
46652;DHT22;32377;52.182;5.398;2023-08-06T00:02:19;15.30;99.90
46652;DHT22;32377;52.182;5.398;2023-08-06T00:04:45;15.30;99.90
46652;DHT22;32377;52.182;5.398;2023-08-06T00:07:11;15.40;99.90
46652;DHT22;32377;52.182;5.398;2023-08-06T00:09:36;15.30;99.90
46652;DHT22;32377;52.182;5.398;2023-08-06T00:12:02;15.40;99.90
46652;DHT22;32377;52.182;5.398;2023-08-06T00:14:28;15.40;99.90
46652;DHT22;32377;52.182;5.398;2023-08-06T00:16:53;15.40;99.90
46652;DHT22;32377;52.182;5.398;2023-08-06T00:19:19;15.30;99.90
46652;DHT22;32377;52.182;5.398;2023-08-06T00:21:44;15.40;99.90
46652;DHT22;32377;52.182;5.398;2023-08-06T00:24:10;15.30;99.90
46652;DHT22;32377;52.182;5.398;2023-08-06T00:26:35;15.40;99.90
46652;DHT22;32377;52.182;5.398;2023-08-06T00:29:01;15.30;99.90
46652;DHT22;32377;52.182;5.398;2023-08-06T00:31:27;15.30;99.90
46652;DHT22;32377;52.182;5.398;2023-08-06T00:33:52;15.30;99.90
46652;DHT22;32377;52.182;5.398;2023-08-06T00:36:18;15.40;99.90
46652;DHT22;32377;52.182;5.398;2023-08-06T00:38:44;15.30;99.90
46652;DHT22;32377;52.182;5.398;2023-08-06T00:41:10;15.40;99.90
46652;DHT22;32377;52.182;5.398;2023-08-06T00:43:35;15.30;99.90
46652;DHT22;32377;52.182;5.398;2023-08-06T00:46:01;15.30;99.90
46652;DHT22;32377;52.182;5.398;2023-08-06T00:48:27;15.30;99.90
46652;DHT22;32377;52.182;5.398;2023-08-06T00:50:53;15.40;99.90
46652;DHT22;32377;52.182;5.398;2023-08-06T00:53:19;15.40;99.90
46652;DHT22;32377;52.182;5.398;2023-08-06T00:55:45;15.40;99.90
46652;DHT22;32377;52.182;5.398;2023-08-06T00:58:12;15.40;99.90
46652;DHT22;32377;52.182;5.398;2023-08-06T01:00:38;15.40;99.90
46652;DHT22;32377;52.182;5.398;2023-08-06T01:03:04;15.30;99.90
46652;DHT22;32377;52.182;5.398;2023-08-06T01:05:30;15.30;99.90
46652;DHT22;32377;52.182;5.398;2023-08-06T01:11:05;15.40;99.90
46652;DHT22;32377;52.182;5.398;2023-08-06T01:13:45;15.40;99.90
46652;DHT22;32377;52.182;5.398;2023-08-06T01:16:17;15.30;99.90
46652;DHT22;32377;52.182;5.398;2023-08-06T01:18:43;15.30;99.90
46652;DHT22;32377;52.182;5.398;2023-08-06T01:21:13;15.30;99.90
46652;DHT22;32377;52.182;5.398;2023-08-06T01:23:39;15.30;99.90
46652;DHT22;32377;52.182;5.398;2023-08-06T01:26:26;15.30;99.90
46652;DHT22;32377;52.182;5.398;2023-08-06T01:31:31;15.30;99.90
46652;DHT22;32377;52.182;5.398;2023-08-06T01:33:58;15.30;99.90
46652;DHT22;32377;52.182;5.398;2023-08-06T01:36:25;15.30;99.90
46652;DHT22;32377;52.182;5.398;2023-08-06T01:38:52;15.30;99.90
46652;DHT22;32377;52.182;5.398;2023-08-06T01:41:18;15.30;99.90
46652;DHT22;32377;52.182;5.398;2023-08-06T01:43:44;15.30;99.90
46652;DHT22;32377;52.182;5.398;2023-08-06T01:46:09;15.30;99.90
46652;DHT22;32377;52.182;5.398;2023-08-06T01:48:35;15.30;99.90
46652;DHT22;32377;52.182;5.398;2023-08-06T01:51:03;15.30;99.90
46652;DHT22;32377;52.182;5.398;2023-08-06T01:53:29;15.30;99.90
46652;DHT22;32377;52.182;5.398;2023-08-06T01:55:55;15.30;99.90
46652;DHT22;32377;52.182;5.398;2023-08-06T01:58:20;15.30;99.90
46652;DHT22;32377;52.182;5.398;2023-08-06T02:00:46;15.30;99.90
46652;DHT22;32377;52.182;5.398;2023-08-06T02:03:11;15.30;99.90
46652;DHT22;32377;52.182;5.398;2023-08-06T02:05:37;15.30;99.90
46652;DHT22;32377;52.182;5.398;2023-08-06T02:08:03;15.30;99.90
46652;DHT22;32377;52.182;5.398;2023-08-06T02:10:28;15.30;99.90
46652;DHT22;32377;52.182;5.398;2023-08-06T02:12:54;15.30;99.90
46652;DHT22;32377;52.182;5.398;2023-08-06T02:15:19;15.30;99.90
46652;DHT22;32377;52.182;5.398;2023-08-06T02:17:45;15.40;99.90
46652;DHT22;32377;52.182;5.398;2023-08-06T02:20:11;15.40;99.90
46652;DHT22;32377;52.182;5.398;2023-08-06T02:22:36;15.30;99.90
46652;DHT22;32377;52.182;5.398;2023-08-06T02:25:02;15.30;99.90
46652;DHT22;32377;52.182;5.398;2023-08-06T02:27:27;15.30;99.90
46652;DHT22;32377;52.182;5.398;2023-08-06T02:29:53;15.20;99.90
46652;DHT22;32377;52.182;5.398;2023-08-06T02:32:19;15.30;99.90
46652;DHT22;32377;52.182;5.398;2023-08-06T02:34:44;15.20;99.90
46652;DHT22;32377;52.182;5.398;2023-08-06T02:37:10;15.30;99.90
46652;DHT22;32377;52.182;5.398;2023-08-06T02:39:36;15.30;99.90
46652;DHT22;32377;52.182;5.398;2023-08-06T02:42:06;15.20;99.90
46652;DHT22;32377;52.182;5.398;2023-08-06T02:44:31;15.30;99.90
46652;DHT22;32377;52.182;5.398;2023-08-06T02:46:57;15.30;99.90
46652;DHT22;32377;52.182;5.398;2023-08-06T02:49:23;15.20;99.90
46652;DHT22;32377;52.182;5.398;2023-08-06T02:51:48;15.20;99.90
46652;DHT22;32377;52.182;5.398;2023-08-06T02:54:14;15.20;99.90
46652;DHT22;32377;52.182;5.398;2023-08-06T02:56:43;15.30;99.90
46652;DHT22;32377;52.182;5.398;2023-08-06T02:59:10;15.20;99.90
46652;DHT22;32377;52.182;5.398;2023-08-06T03:01:36;15.20;99.90
46652;DHT22;32377;52.182;5.398;2023-08-06T03:04:02;15.20;99.90
46652;DHT22;32377;52.182;5.398;2023-08-06T03:06:27;15.20;99.90
46652;DHT22;32377;52.182;5.398;2023-08-06T03:08:53;15.20;99.90
46652;DHT22;32377;52.182;5.398;2023-08-06T03:11:19;15.20;99.90
46652;DHT22;32377;52.182;5.398;2023-08-06T03:13:44;15.20;99.90
46652;DHT22;32377;52.182;5.398;2023-08-06T03:16:10;15.20;99.90
46652;DHT22;32377;52.182;5.398;2023-08-06T03:18:35;15.20;99.90
46652;DHT22;32377;52.182;5.398;2023-08-06T03:21:01;15.20;99.90
46652;DHT22;32377;52.182;5.398;2023-08-06T03:23:27;15.20;99.90
46652;DHT22;32377;52.182;5.398;2023-08-06T03:25:52;15.20;99.90
46652;DHT22;32377;52.182;5.398;2023-08-06T03:28:18;15.10;99.90
46652;DHT22;32377;52.182;5.398;2023-08-06T03:30:43;15.10;99.90
46652;DHT22;32377;52.182;5.398;2023-08-06T03:33:09;15.10;99.90
46652;DHT22;32377;52.182;5.398;2023-08-06T03:35:35;15.00;99.90
46652;DHT22;32377;52.182;5.398;2023-08-06T03:38:00;15.10;99.90
46652;DHT22;32377;52.182;5.398;2023-08-06T03:40:26;15.00;99.90
46652;DHT22;32377;52.182;5.398;2023-08-06T03:42:51;15.00;99.90
46652;DHT22;32377;52.182;5.398;2023-08-06T03:45:17;14.90;99.90
46652;DHT22;32377;52.182;5.398;2023-08-06T03:47:43;15.00;99.90
46652;DHT22;32377;52.182;5.398;2023-08-06T03:50:09;15.00;99.90
46652;DHT22;32377;52.182;5.398;2023-08-06T03:52:34;15.00;99.90
46652;DHT22;32377;52.182;5.398;2023-08-06T03:55:00;15.00;99.90
46652;DHT22;32377;52.182;5.398;2023-08-06T03:59:01;15.10;99.90
46652;DHT22;32377;52.182;5.398;2023-08-06T04:01:26;15.10;99.90
46652;DHT22;32377;52.182;5.398;2023-08-06T04:03:52;15.10;99.90
46652;DHT22;32377;52.182;5.398;2023-08-06T04:06:18;15.10;99.90
46652;DHT22;32377;52.182;5.398;2023-08-06T04:08:43;15.00;99.90
46652;DHT22;32377;52.182;5.398;2023-08-06T04:11:09;15.10;99.90
46652;DHT22;32377;52.182;5.398;2023-08-06T04:13:35;15.10;99.90
46652;DHT22;32377;52.182;5.398;2023-08-06T04:16:01;15.10;99.90
46652;DHT22;32377;52.182;5.398;2023-08-06T04:18:27;15.10;99.90
46652;DHT22;32377;52.182;5.398;2023-08-06T04:20:53;15.10;99.90
46652;DHT22;32377;52.182;5.398;2023-08-06T04:23:20;15.10;99.90
46652;DHT22;32377;52.182;5.398;2023-08-06T04:25:46;15.10;99.90
46652;DHT22;32377;52.182;5.398;2023-08-06T04:28:12;15.10;99.90
46652;DHT22;32377;52.182;5.398;2023-08-06T04:30:38;15.20;99.90
46652;DHT22;32377;52.182;5.398;2023-08-06T04:33:03;15.10;99.90
46652;DHT22;32377;52.182;5.398;2023-08-06T04:35:29;15.10;99.90
46652;DHT22;32377;52.182;5.398;2023-08-06T04:37:55;15.20;99.90
46652;DHT22;32377;52.182;5.398;2023-08-06T04:40:20;15.20;99.90
46652;DHT22;32377;52.182;5.398;2023-08-06T04:42:46;15.20;99.90
46652;DHT22;32377;52.182;5.398;2023-08-06T04:45:11;15.20;99.90
46652;DHT22;32377;52.182;5.398;2023-08-06T04:47:37;15.20;99.90
46652;DHT22;32377;52.182;5.398;2023-08-06T04:50:03;15.20;99.90
46652;DHT22;32377;52.182;5.398;2023-08-06T04:52:29;15.20;99.90
46652;DHT22;32377;52.182;5.398;2023-08-06T04:54:55;15.20;99.90
46652;DHT22;32377;52.182;5.398;2023-08-06T04:57:20;15.30;99.90
46652;DHT22;32377;52.182;5.398;2023-08-06T04:59:46;15.20;99.90
46652;DHT22;32377;52.182;5.398;2023-08-06T05:02:12;15.30;99.90
46652;DHT22;32377;52.182;5.398;2023-08-06T05:04:37;15.30;99.90
46652;DHT22;32377;52.182;5.398;2023-08-06T05:07:04;15.40;99.90
46652;DHT22;32377;52.182;5.398;2023-08-06T05:09:30;15.40;99.90
46652;DHT22;32377;52.182;5.398;2023-08-06T05:11:56;15.40;99.90
46652;DHT22;32377;52.182;5.398;2023-08-06T05:14:21;15.50;99.90
46652;DHT22;32377;52.182;5.398;2023-08-06T05:16:47;15.50;99.90
46652;DHT22;32377;52.182;5.398;2023-08-06T05:19:12;15.50;99.90
46652;DHT22;32377;52.182;5.398;2023-08-06T05:21:38;15.50;99.90
46652;DHT22;32377;52.182;5.398;2023-08-06T05:24:04;15.50;99.90
46652;DHT22;32377;52.182;5.398;2023-08-06T05:26:29;15.50;99.90
46652;DHT22;32377;52.182;5.398;2023-08-06T05:28:55;15.60;99.90
46652;DHT22;32377;52.182;5.398;2023-08-06T05:31:20;15.60;99.90
46652;DHT22;32377;52.182;5.398;2023-08-06T05:33:46;15.60;99.90
46652;DHT22;32377;52.182;5.398;2023-08-06T05:36:12;15.70;99.90
46652;DHT22;32377;52.182;5.398;2023-08-06T05:38:37;15.70;99.90
46652;DHT22;32377;52.182;5.398;2023-08-06T05:41:03;15.70;99.90
46652;DHT22;32377;52.182;5.398;2023-08-06T05:43:29;15.60;99.90
46652;DHT22;32377;52.182;5.398;2023-08-06T05:45:55;15.60;99.90
46652;DHT22;32377;52.182;5.398;2023-08-06T05:48:21;15.60;99.90
46652;DHT22;32377;52.182;5.398;2023-08-06T05:50:53;15.60;99.90
46652;DHT22;32377;52.182;5.398;2023-08-06T05:53:18;15.70;99.90
46652;DHT22;32377;52.182;5.398;2023-08-06T05:55:45;15.70;99.90
46652;DHT22;32377;52.182;5.398;2023-08-06T05:58:10;15.60;99.90
46652;DHT22;32377;52.182;5.398;2023-08-06T06:00:36;15.60;99.90
46652;DHT22;32377;52.182;5.398;2023-08-06T06:03:02;15.60;99.90
46652;DHT22;32377;52.182;5.398;2023-08-06T06:05:28;15.60;99.90
46652;DHT22;32377;52.182;5.398;2023-08-06T06:07:54;15.60;99.90
46652;DHT22;32377;52.182;5.398;2023-08-06T06:10:19;15.50;99.90
46652;DHT22;32377;52.182;5.398;2023-08-06T06:12:45;15.50;99.90
46652;DHT22;32377;52.182;5.398;2023-08-06T06:15:11;15.60;99.90
46652;DHT22;32377;52.182;5.398;2023-08-06T06:17:36;15.50;99.90
46652;DHT22;32377;52.182;5.398;2023-08-06T06:20:02;15.50;99.90
46652;DHT22;32377;52.182;5.398;2023-08-06T06:22:29;15.60;99.90
46652;DHT22;32377;52.182;5.398;2023-08-06T06:24:55;15.60;99.90
46652;DHT22;32377;52.182;5.398;2023-08-06T06:27:21;15.60;99.90
46652;DHT22;32377;52.182;5.398;2023-08-06T06:29:46;15.60;99.90
46652;DHT22;32377;52.182;5.398;2023-08-06T06:32:12;15.60;99.90
46652;DHT22;32377;52.182;5.398;2023-08-06T06:34:38;15.50;99.90
46652;DHT22;32377;52.182;5.398;2023-08-06T06:37:03;15.60;99.90
46652;DHT22;32377;52.182;5.398;2023-08-06T06:39:29;15.60;99.90
46652;DHT22;32377;52.182;5.398;2023-08-06T06:41:55;15.60;99.90
46652;DHT22;32377;52.182;5.398;2023-08-06T06:44:20;15.70;99.90
46652;DHT22;32377;52.182;5.398;2023-08-06T06:46:46;15.60;99.90
46652;DHT22;32377;52.182;5.398;2023-08-06T06:49:12;15.60;99.90
46652;DHT22;32377;52.182;5.398;2023-08-06T06:51:37;15.60;99.90
46652;DHT22;32377;52.182;5.398;2023-08-06T06:54:03;15.60;99.90
46652;DHT22;32377;52.182;5.398;2023-08-06T06:56:29;15.60;99.90
46652;DHT22;32377;52.182;5.398;2023-08-06T06:58:54;15.60;99.90
46652;DHT22;32377;52.182;5.398;2023-08-06T07:01:20;15.60;99.90
46652;DHT22;32377;52.182;5.398;2023-08-06T07:03:46;15.60;99.90
46652;DHT22;32377;52.182;5.398;2023-08-06T07:06:11;15.70;99.90
46652;DHT22;32377;52.182;5.398;2023-08-06T07:08:38;15.70;99.90
46652;DHT22;32377;52.182;5.398;2023-08-06T07:11:05;15.80;99.90
46652;DHT22;32377;52.182;5.398;2023-08-06T07:13:31;15.80;99.90
46652;DHT22;32377;52.182;5.398;2023-08-06T07:15:57;15.80;99.90
46652;DHT22;32377;52.182;5.398;2023-08-06T07:18:23;15.80;99.90
46652;DHT22;32377;52.182;5.398;2023-08-06T07:20:53;15.80;99.90
46652;DHT22;32377;52.182;5.398;2023-08-06T07:23:23;15.80;99.90
46652;DHT22;32377;52.182;5.398;2023-08-06T07:25:49;15.90;99.90
46652;DHT22;32377;52.182;5.398;2023-08-06T07:28:15;15.90;99.90
46652;DHT22;32377;52.182;5.398;2023-08-06T07:30:42;16.00;99.90
46652;DHT22;32377;52.182;5.398;2023-08-06T07:33:08;16.00;99.90
46652;DHT22;32377;52.182;5.398;2023-08-06T07:35:34;16.10;99.90
46652;DHT22;32377;52.182;5.398;2023-08-06T07:38:00;16.10;99.90
46652;DHT22;32377;52.182;5.398;2023-08-06T07:40:26;16.10;99.90
46652;DHT22;32377;52.182;5.398;2023-08-06T07:42:52;16.10;99.90
46652;DHT22;32377;52.182;5.398;2023-08-06T07:45:18;16.10;99.90
46652;DHT22;32377;52.182;5.398;2023-08-06T07:47:43;16.10;99.90
46652;DHT22;32377;52.182;5.398;2023-08-06T07:50:09;16.20;99.90
46652;DHT22;32377;52.182;5.398;2023-08-06T07:52:35;16.20;99.90
46652;DHT22;32377;52.182;5.398;2023-08-06T07:55:01;16.20;99.90
46652;DHT22;32377;52.182;5.398;2023-08-06T07:57:31;16.20;99.90
46652;DHT22;32377;52.182;5.398;2023-08-06T07:59:57;16.10;99.90
46652;DHT22;32377;52.182;5.398;2023-08-06T08:02:22;16.20;99.90
46652;DHT22;32377;52.182;5.398;2023-08-06T08:04:48;16.20;99.90
46652;DHT22;32377;52.182;5.398;2023-08-06T08:07:14;16.20;99.90
46652;DHT22;32377;52.182;5.398;2023-08-06T08:09:40;16.30;99.90
46652;DHT22;32377;52.182;5.398;2023-08-06T08:12:05;16.30;99.90
46652;DHT22;32377;52.182;5.398;2023-08-06T08:14:31;16.30;99.90
46652;DHT22;32377;52.182;5.398;2023-08-06T08:17:05;16.20;99.90
46652;DHT22;32377;52.182;5.398;2023-08-06T08:19:33;16.20;99.90
46652;DHT22;32377;52.182;5.398;2023-08-06T08:21:59;16.30;99.90
46652;DHT22;32377;52.182;5.398;2023-08-06T08:24:25;16.20;99.90
46652;DHT22;32377;52.182;5.398;2023-08-06T08:26:51;16.20;99.90
46652;DHT22;32377;52.182;5.398;2023-08-06T08:29:17;16.30;99.90
46652;DHT22;32377;52.182;5.398;2023-08-06T08:31:43;16.30;99.90
46652;DHT22;32377;52.182;5.398;2023-08-06T08:34:09;16.10;99.90
46652;DHT22;32377;52.182;5.398;2023-08-06T08:36:35;16.10;99.90
46652;DHT22;32377;52.182;5.398;2023-08-06T08:39:01;15.90;99.90
46652;DHT22;32377;52.182;5.398;2023-08-06T08:41:31;15.90;99.90
46652;DHT22;32377;52.182;5.398;2023-08-06T08:43:58;15.80;99.90
46652;DHT22;32377;52.182;5.398;2023-08-06T08:46:26;15.70;99.90
46652;DHT22;32377;52.182;5.398;2023-08-06T08:48:53;15.70;99.90
46652;DHT22;32377;52.182;5.398;2023-08-06T08:51:19;15.60;99.90
46652;DHT22;32377;52.182;5.398;2023-08-06T08:53:47;15.40;99.90
46652;DHT22;32377;52.182;5.398;2023-08-06T08:56:14;15.40;99.90
46652;DHT22;32377;52.182;5.398;2023-08-06T08:58:40;15.30;99.90
46652;DHT22;32377;52.182;5.398;2023-08-06T09:01:07;15.20;99.90
46652;DHT22;32377;52.182;5.398;2023-08-06T09:03:33;15.20;99.90
46652;DHT22;32377;52.182;5.398;2023-08-06T09:06:02;15.20;99.90
46652;DHT22;32377;52.182;5.398;2023-08-06T09:08:36;15.10;99.90
46652;DHT22;32377;52.182;5.398;2023-08-06T09:11:04;15.10;99.90
46652;DHT22;32377;52.182;5.398;2023-08-06T09:13:30;15.10;99.90
46652;DHT22;32377;52.182;5.398;2023-08-06T09:15:56;15.10;99.90
46652;DHT22;32377;52.182;5.398;2023-08-06T09:18:29;15.10;99.90
46652;DHT22;32377;52.182;5.398;2023-08-06T09:20:56;15.00;99.90
46652;DHT22;32377;52.182;5.398;2023-08-06T09:23:31;15.00;99.90
46652;DHT22;32377;52.182;5.398;2023-08-06T09:25:59;15.10;99.90
46652;DHT22;32377;52.182;5.398;2023-08-06T09:28:24;15.10;99.90
46652;DHT22;32377;52.182;5.398;2023-08-06T09:30:50;15.10;99.90
46652;DHT22;32377;52.182;5.398;2023-08-06T09:33:18;15.20;99.90
46652;DHT22;32377;52.182;5.398;2023-08-06T09:35:46;15.20;99.90
46652;DHT22;32377;52.182;5.398;2023-08-06T09:38:12;15.20;99.90
46652;DHT22;32377;52.182;5.398;2023-08-06T09:40:39;15.10;99.90
46652;DHT22;32377;52.182;5.398;2023-08-06T09:43:05;15.10;99.90
46652;DHT22;32377;52.182;5.398;2023-08-06T09:45:35;15.10;99.90
46652;DHT22;32377;52.182;5.398;2023-08-06T09:48:05;15.10;99.90
46652;DHT22;32377;52.182;5.398;2023-08-06T09:50:32;15.20;99.90
46652;DHT22;32377;52.182;5.398;2023-08-06T09:52:59;15.10;99.90
46652;DHT22;32377;52.182;5.398;2023-08-06T09:55:26;15.20;99.90
46652;DHT22;32377;52.182;5.398;2023-08-06T09:58:59;15.20;99.90
46652;DHT22;32377;52.182;5.398;2023-08-06T10:01:25;15.30;99.90
46652;DHT22;32377;52.182;5.398;2023-08-06T10:03:52;15.40;99.90
46652;DHT22;32377;52.182;5.398;2023-08-06T10:06:20;15.40;99.90
46652;DHT22;32377;52.182;5.398;2023-08-06T10:08:46;15.30;99.90
46652;DHT22;32377;52.182;5.398;2023-08-06T10:11:13;15.50;99.90
46652;DHT22;32377;52.182;5.398;2023-08-06T10:13:39;15.50;99.90
46652;DHT22;32377;52.182;5.398;2023-08-06T10:16:06;15.60;99.90
46652;DHT22;32377;52.182;5.398;2023-08-06T10:18:31;15.70;99.90
46652;DHT22;32377;52.182;5.398;2023-08-06T10:20:59;15.70;99.90
46652;DHT22;32377;52.182;5.398;2023-08-06T10:23:37;15.70;99.90
46652;DHT22;32377;52.182;5.398;2023-08-06T10:26:05;15.80;99.90
46652;DHT22;32377;52.182;5.398;2023-08-06T10:28:37;15.80;99.90
46652;DHT22;32377;52.182;5.398;2023-08-06T10:31:04;15.70;99.90
46652;DHT22;32377;52.182;5.398;2023-08-06T10:33:50;15.70;99.90
46652;DHT22;32377;52.182;5.398;2023-08-06T10:36:15;15.80;99.90
46652;DHT22;32377;52.182;5.398;2023-08-06T10:38:46;15.80;99.90
46652;DHT22;32377;52.182;5.398;2023-08-06T10:41:16;15.90;99.90
46652;DHT22;32377;52.182;5.398;2023-08-06T10:43:47;15.70;99.90
46652;DHT22;32377;52.182;5.398;2023-08-06T10:46:23;15.70;99.90
46652;DHT22;32377;52.182;5.398;2023-08-06T10:48:49;15.60;99.90
46652;DHT22;32377;52.182;5.398;2023-08-06T10:51:14;15.60;99.90
46652;DHT22;32377;52.182;5.398;2023-08-06T10:53:48;15.70;99.90
46652;DHT22;32377;52.182;5.398;2023-08-06T10:56:24;15.70;99.90
46652;DHT22;32377;52.182;5.398;2023-08-06T10:58:53;15.60;99.90
46652;DHT22;32377;52.182;5.398;2023-08-06T11:01:18;15.50;99.90
46652;DHT22;32377;52.182;5.398;2023-08-06T11:03:45;15.60;99.90
46652;DHT22;32377;52.182;5.398;2023-08-06T11:06:17;15.70;99.90
46652;DHT22;32377;52.182;5.398;2023-08-06T11:08:53;15.60;99.90
46652;DHT22;32377;52.182;5.398;2023-08-06T11:11:20;15.60;99.90
46652;DHT22;32377;52.182;5.398;2023-08-06T11:13:47;15.50;99.90
46652;DHT22;32377;52.182;5.398;2023-08-06T11:16:20;15.50;99.90
46652;DHT22;32377;52.182;5.398;2023-08-06T11:18:47;15.50;99.90
46652;DHT22;32377;52.182;5.398;2023-08-06T11:21:13;15.40;99.90
46652;DHT22;32377;52.182;5.398;2023-08-06T11:23:39;15.40;99.90
46652;DHT22;32377;52.182;5.398;2023-08-06T11:26:05;15.50;99.90
46652;DHT22;32377;52.182;5.398;2023-08-06T11:28:31;15.30;99.90
46652;DHT22;32377;52.182;5.398;2023-08-06T11:30:57;15.30;99.90
46652;DHT22;32377;52.182;5.398;2023-08-06T11:33:27;15.20;99.90
46652;DHT22;32377;52.182;5.398;2023-08-06T11:35:56;15.30;99.90
46652;DHT22;32377;52.182;5.398;2023-08-06T11:38:27;15.20;99.90
46652;DHT22;32377;52.182;5.398;2023-08-06T11:40:54;15.30;99.90
46652;DHT22;32377;52.182;5.398;2023-08-06T11:43:20;15.40;99.90
46652;DHT22;32377;52.182;5.398;2023-08-06T11:45:48;15.30;99.90
46652;DHT22;32377;52.182;5.398;2023-08-06T11:48:14;15.20;99.90
46652;DHT22;32377;52.182;5.398;2023-08-06T11:50:40;15.10;99.90
46652;DHT22;32377;52.182;5.398;2023-08-06T11:53:06;15.00;99.90
46652;DHT22;32377;52.182;5.398;2023-08-06T11:55:32;15.10;99.90
46652;DHT22;32377;52.182;5.398;2023-08-06T11:57:59;15.10;99.90
46652;DHT22;32377;52.182;5.398;2023-08-06T12:00:29;15.00;99.90
46652;DHT22;32377;52.182;5.398;2023-08-06T12:02:56;15.10;99.90
46652;DHT22;32377;52.182;5.398;2023-08-06T12:05:23;15.20;99.90
46652;DHT22;32377;52.182;5.398;2023-08-06T12:07:59;15.10;99.90
46652;DHT22;32377;52.182;5.398;2023-08-06T12:10:27;15.20;99.90
46652;DHT22;32377;52.182;5.398;2023-08-06T12:12:53;15.20;99.90
46652;DHT22;32377;52.182;5.398;2023-08-06T12:15:20;15.20;99.90
46652;DHT22;32377;52.182;5.398;2023-08-06T12:17:45;15.20;99.90
46652;DHT22;32377;52.182;5.398;2023-08-06T12:20:11;15.20;99.90
46652;DHT22;32377;52.182;5.398;2023-08-06T12:22:37;15.30;99.90
46652;DHT22;32377;52.182;5.398;2023-08-06T12:25:10;15.30;99.90
46652;DHT22;32377;52.182;5.398;2023-08-06T12:27:44;15.30;99.90
46652;DHT22;32377;52.182;5.398;2023-08-06T12:30:11;15.30;99.90
46652;DHT22;32377;52.182;5.398;2023-08-06T12:32:38;15.30;99.90
46652;DHT22;32377;52.182;5.398;2023-08-06T12:35:04;15.40;99.90
46652;DHT22;32377;52.182;5.398;2023-08-06T12:37:30;15.40;99.90
46652;DHT22;32377;52.182;5.398;2023-08-06T12:39:56;15.40;99.90
46652;DHT22;32377;52.182;5.398;2023-08-06T12:42:21;15.40;99.90
46652;DHT22;32377;52.182;5.398;2023-08-06T12:44:50;15.50;99.90
46652;DHT22;32377;52.182;5.398;2023-08-06T12:47:16;15.50;99.90
46652;DHT22;32377;52.182;5.398;2023-08-06T12:49:42;15.50;99.90
46652;DHT22;32377;52.182;5.398;2023-08-06T12:52:08;15.50;99.90
46652;DHT22;32377;52.182;5.398;2023-08-06T12:54:35;15.60;99.90
46652;DHT22;32377;52.182;5.398;2023-08-06T12:57:02;15.70;99.90
46652;DHT22;32377;52.182;5.398;2023-08-06T12:59:28;15.70;99.90
46652;DHT22;32377;52.182;5.398;2023-08-06T13:01:54;15.60;99.90
46652;DHT22;32377;52.182;5.398;2023-08-06T13:04:19;15.70;99.90
46652;DHT22;32377;52.182;5.398;2023-08-06T13:06:45;15.60;99.90
46652;DHT22;32377;52.182;5.398;2023-08-06T13:09:11;15.60;99.90
46652;DHT22;32377;52.182;5.398;2023-08-06T13:11:39;15.80;99.90
46652;DHT22;32377;52.182;5.398;2023-08-06T13:14:09;15.70;99.90
46652;DHT22;32377;52.182;5.398;2023-08-06T13:16:36;15.80;99.90
46652;DHT22;32377;52.182;5.398;2023-08-06T13:19:02;15.70;99.90
46652;DHT22;32377;52.182;5.398;2023-08-06T13:21:57;15.80;99.90
46652;DHT22;32377;52.182;5.398;2023-08-06T13:24:21;15.80;99.90
46652;DHT22;32377;52.182;5.398;2023-08-06T13:26:47;15.80;99.90
46652;DHT22;32377;52.182;5.398;2023-08-06T13:29:12;15.80;99.90
46652;DHT22;32377;52.182;5.398;2023-08-06T13:31:38;15.80;99.90
46652;DHT22;32377;52.182;5.398;2023-08-06T13:34:04;15.90;99.90
46652;DHT22;32377;52.182;5.398;2023-08-06T13:36:30;15.90;99.90
46652;DHT22;32377;52.182;5.398;2023-08-06T13:38:56;15.90;99.90
46652;DHT22;32377;52.182;5.398;2023-08-06T13:41:22;15.90;99.90
46652;DHT22;32377;52.182;5.398;2023-08-06T13:43:48;16.00;99.90
46652;DHT22;32377;52.182;5.398;2023-08-06T13:46:14;16.00;99.90
46652;DHT22;32377;52.182;5.398;2023-08-06T13:48:45;16.10;99.90
46652;DHT22;32377;52.182;5.398;2023-08-06T13:51:12;16.10;99.90
46652;DHT22;32377;52.182;5.398;2023-08-06T13:53:38;16.20;99.90
46652;DHT22;32377;52.182;5.398;2023-08-06T13:56:05;16.20;99.90
46652;DHT22;32377;52.182;5.398;2023-08-06T13:58:31;16.20;99.90
46652;DHT22;32377;52.182;5.398;2023-08-06T14:00:57;16.20;99.90
46652;DHT22;32377;52.182;5.398;2023-08-06T14:03:23;16.20;99.90
46652;DHT22;32377;52.182;5.398;2023-08-06T14:05:49;16.20;99.90
46652;DHT22;32377;52.182;5.398;2023-08-06T14:08:15;16.20;99.90
46652;DHT22;32377;52.182;5.398;2023-08-06T14:10:44;16.20;99.90
46652;DHT22;32377;52.182;5.398;2023-08-06T14:13:10;16.30;99.90
46652;DHT22;32377;52.182;5.398;2023-08-06T14:15:35;16.20;99.90
46652;DHT22;32377;52.182;5.398;2023-08-06T14:18:02;16.30;99.90
46652;DHT22;32377;52.182;5.398;2023-08-06T14:20:28;16.30;99.90
46652;DHT22;32377;52.182;5.398;2023-08-06T14:22:53;16.30;99.90
46652;DHT22;32377;52.182;5.398;2023-08-06T14:25:19;16.30;99.90
46652;DHT22;32377;52.182;5.398;2023-08-06T14:27:45;16.40;99.90
46652;DHT22;32377;52.182;5.398;2023-08-06T14:30:11;16.60;99.90
46652;DHT22;32377;52.182;5.398;2023-08-06T14:32:37;16.50;99.90
46652;DHT22;32377;52.182;5.398;2023-08-06T14:35:03;16.50;99.90
46652;DHT22;32377;52.182;5.398;2023-08-06T14:37:28;16.50;99.90
46652;DHT22;32377;52.182;5.398;2023-08-06T14:39:54;16.50;99.90
46652;DHT22;32377;52.182;5.398;2023-08-06T14:42:20;16.60;99.90
46652;DHT22;32377;52.182;5.398;2023-08-06T14:44:46;16.70;99.90
46652;DHT22;32377;52.182;5.398;2023-08-06T14:47:11;16.60;99.90
46652;DHT22;32377;52.182;5.398;2023-08-06T14:49:38;16.70;99.90
46652;DHT22;32377;52.182;5.398;2023-08-06T14:52:05;16.70;99.90
46652;DHT22;32377;52.182;5.398;2023-08-06T14:54:31;16.60;99.90
46652;DHT22;32377;52.182;5.398;2023-08-06T14:56:56;16.70;99.90
46652;DHT22;32377;52.182;5.398;2023-08-06T14:59:22;16.70;99.90
46652;DHT22;32377;52.182;5.398;2023-08-06T15:01:48;16.70;99.90
46652;DHT22;32377;52.182;5.398;2023-08-06T15:04:13;16.80;99.90
46652;DHT22;32377;52.182;5.398;2023-08-06T15:06:39;16.50;99.90
46652;DHT22;32377;52.182;5.398;2023-08-06T15:09:05;16.50;99.90
46652;DHT22;32377;52.182;5.398;2023-08-06T15:11:30;16.50;99.90
46652;DHT22;32377;52.182;5.398;2023-08-06T15:13:56;16.50;99.90
46652;DHT22;32377;52.182;5.398;2023-08-06T15:16:22;16.30;99.90
46652;DHT22;32377;52.182;5.398;2023-08-06T15:18:47;16.40;99.90
46652;DHT22;32377;52.182;5.398;2023-08-06T15:21:14;16.30;99.90
46652;DHT22;32377;52.182;5.398;2023-08-06T15:23:39;16.30;99.90
46652;DHT22;32377;52.182;5.398;2023-08-06T15:26:05;16.30;99.90
46652;DHT22;32377;52.182;5.398;2023-08-06T15:28:31;16.30;99.90
46652;DHT22;32377;52.182;5.398;2023-08-06T15:30:56;16.30;99.90
46652;DHT22;32377;52.182;5.398;2023-08-06T15:33:22;16.30;99.90
46652;DHT22;32377;52.182;5.398;2023-08-06T15:35:48;16.30;99.90